createdAt,value
2023-01-18T00:00:10.196Z,5.72
2023-01-18T00:02:37.608Z,5.60
2023-01-18T00:05:04.915Z,5.47
2023-01-18T00:07:32.418Z,4.90
2023-01-18T00:09:59.569Z,5.30
2023-01-18T00:12:26.789Z,5.72
2023-01-18T00:14:53.996Z,6.25
2023-01-18T00:17:21.168Z,5.82
2023-01-18T00:19:48.836Z,5.43
2023-01-18T00:22:16.306Z,5.65
2023-01-18T00:24:43.452Z,5.78
2023-01-18T00:27:10.974Z,5.55
2023-01-18T00:29:38.160Z,5.28
2023-01-18T00:32:05.625Z,6.20
2023-01-18T00:34:33.002Z,5.50
2023-01-18T00:37:00.208Z,5.72
2023-01-18T00:39:27.408Z,5.50
2023-01-18T00:42:13.496Z,5.95
2023-01-18T00:44:40.617Z,5.97
2023-01-18T00:47:07.748Z,5.10
2023-01-18T00:49:34.908Z,5.68
2023-01-18T00:52:02.063Z,6.45
2023-01-18T00:54:29.219Z,5.45
2023-01-18T00:56:56.427Z,5.47
2023-01-18T00:59:23.607Z,5.25
2023-01-18T01:01:50.863Z,5.63
2023-01-18T01:04:36.874Z,5.05
2023-01-18T01:07:04.117Z,5.00
2023-01-18T01:09:31.363Z,4.88
2023-01-18T01:12:18.317Z,4.90
2023-01-18T01:15:05.931Z,5.00
2023-01-18T01:17:53.509Z,5.20
2023-01-18T01:20:39.602Z,4.97
2023-01-18T01:23:32.579Z,5.00
2023-01-18T01:26:10.731Z,5.25
2023-01-18T01:28:38.714Z,4.70
2023-01-18T01:31:07.472Z,5.45
2023-01-18T01:33:35.191Z,5.28
2023-01-18T01:36:10.259Z,5.05
2023-01-18T01:38:37.512Z,4.93
2023-01-18T01:41:06.467Z,4.90
2023-01-18T01:43:42.270Z,5.00
2023-01-18T01:48:37.885Z,5.28
2023-01-18T01:51:05.070Z,5.38
2023-01-18T01:53:32.198Z,4.47
2023-01-18T01:55:59.654Z,5.00
2023-01-18T01:58:28.070Z,4.88
2023-01-18T02:00:55.517Z,4.97
2023-01-18T02:03:23.365Z,5.07
2023-01-18T02:05:55.466Z,4.85
2023-01-18T02:08:22.914Z,5.40
2023-01-18T02:10:50.903Z,4.63
2023-01-18T02:13:18.960Z,4.65
2023-01-18T02:16:04.275Z,4.78
2023-01-18T02:18:50.063Z,4.90
2023-01-18T02:21:23.728Z,4.75
2023-01-18T02:23:50.845Z,4.50
2023-01-18T02:26:30.138Z,4.75
2023-01-18T02:29:06.409Z,4.30
2023-01-18T02:31:43.497Z,5.22
2023-01-18T02:34:14.157Z,4.85
2023-01-18T02:37:02.088Z,4.65
2023-01-18T02:39:38.214Z,4.85
2023-01-18T02:42:44.248Z,4.68
2023-01-18T02:45:36.310Z,4.95
2023-01-18T02:48:03.869Z,5.07
2023-01-18T02:50:31.111Z,4.72
2023-01-18T02:52:58.603Z,5.18
2023-01-18T02:55:35.076Z,4.85
2023-01-18T02:58:05.397Z,4.45
2023-01-18T03:00:34.947Z,4.22
2023-01-18T03:03:02.343Z,5.30
2023-01-18T03:05:31.128Z,5.07
2023-01-18T03:08:14.006Z,4.20
2023-01-18T03:10:47.585Z,4.40
2023-01-18T03:13:25.183Z,4.30
2023-01-18T03:15:58.724Z,4.55
2023-01-18T03:19:00.525Z,4.05
2023-01-18T03:21:51.462Z,4.97
2023-01-18T03:24:19.644Z,4.45
2023-01-18T03:26:50.659Z,4.57
2023-01-18T03:29:38.273Z,4.93
2023-01-18T03:32:31.476Z,4.93
2023-01-18T03:34:58.602Z,3.95
2023-01-18T03:37:38.370Z,4.40
2023-01-18T03:40:13.095Z,4.50
2023-01-18T03:42:51.752Z,4.10
2023-01-18T03:45:31.031Z,4.40
2023-01-18T03:47:58.280Z,4.38
2023-01-18T03:50:28.895Z,4.03
2023-01-18T03:52:59.246Z,3.90
2023-01-18T03:55:29.541Z,4.50
2023-01-18T03:57:59.861Z,4.13
2023-01-18T04:00:27.210Z,4.25
2023-01-18T04:02:54.399Z,3.97
2023-01-18T04:05:21.626Z,3.78
2023-01-18T04:07:49.046Z,3.95
2023-01-18T04:10:16.360Z,4.50
2023-01-18T04:12:43.496Z,4.10
2023-01-18T04:15:10.948Z,4.38
2023-01-18T04:17:38.135Z,4.10
2023-01-18T04:20:05.547Z,3.90
2023-01-18T04:22:32.742Z,4.00
2023-01-18T04:24:59.879Z,3.50
2023-01-18T04:27:27.045Z,4.00
2023-01-18T04:29:54.223Z,4.38
2023-01-18T04:32:21.410Z,4.07
2023-01-18T04:34:48.538Z,4.38
2023-01-18T04:37:15.693Z,4.00
2023-01-18T04:39:42.887Z,3.75
2023-01-18T04:42:10.078Z,3.22
2023-01-18T04:44:37.400Z,3.95
2023-01-18T04:47:04.539Z,3.90
2023-01-18T04:49:31.701Z,3.58
2023-01-18T04:51:58.875Z,3.85
2023-01-18T04:54:26.074Z,3.95
2023-01-18T04:56:53.580Z,4.30
2023-01-18T04:59:20.855Z,4.18
2023-01-18T05:01:48.094Z,3.83
2023-01-18T05:04:15.387Z,3.78
2023-01-18T05:06:42.503Z,3.63
2023-01-18T05:09:12.260Z,3.67
2023-01-18T05:11:39.395Z,4.53
2023-01-18T05:14:06.553Z,3.58
2023-01-18T05:16:33.749Z,3.75
2023-01-18T05:19:00.940Z,3.78
2023-01-18T05:21:28.663Z,3.45
2023-01-18T05:23:55.778Z,3.95
2023-01-18T05:26:25.527Z,3.78
2023-01-18T05:28:57.032Z,3.97
2023-01-18T05:31:24.263Z,3.65
2023-01-18T05:33:51.416Z,4.28
2023-01-18T05:36:18.623Z,3.65
2023-01-18T05:38:46.978Z,3.88
2023-01-18T05:41:14.126Z,3.88
2023-01-18T05:43:41.271Z,3.92
2023-01-18T05:46:08.648Z,4.13
2023-01-18T05:48:36.222Z,3.90
2023-01-18T05:51:08.656Z,3.75
2023-01-18T05:53:36.154Z,4.70
2023-01-18T05:56:05.208Z,4.95
2023-01-18T05:58:32.632Z,5.78
2023-01-18T06:00:59.994Z,5.45
2023-01-18T06:03:27.174Z,4.95
2023-01-18T06:05:54.442Z,5.45
2023-01-18T06:08:21.907Z,5.20
2023-01-18T06:10:56.029Z,5.35
2023-01-18T06:13:23.501Z,5.80
2023-01-18T06:15:51.839Z,5.55
2023-01-18T06:18:19.125Z,6.03
2023-01-18T06:20:46.299Z,5.55
2023-01-18T06:23:13.493Z,5.47
2023-01-18T06:25:40.686Z,5.50
2023-01-18T06:28:07.871Z,5.38
2023-01-18T06:30:35.038Z,5.28
2023-01-18T06:33:06.727Z,5.38
2023-01-18T06:35:34.601Z,5.85
2023-01-18T06:38:02.436Z,5.72
2023-01-18T06:40:29.866Z,5.32
2023-01-18T06:42:57.944Z,6.03
2023-01-18T06:45:25.951Z,5.65
2023-01-18T06:47:53.370Z,5.78
2023-01-18T06:50:20.642Z,6.28
2023-01-18T06:52:47.789Z,5.38
2023-01-18T06:55:15.832Z,5.40
2023-01-18T06:57:43.182Z,5.25
2023-01-18T07:00:11.390Z,5.30
2023-01-18T07:02:38.837Z,5.40
2023-01-18T07:05:06.596Z,5.60
2023-01-18T07:07:33.868Z,5.53
2023-01-18T07:10:01.150Z,5.25
2023-01-18T07:12:28.341Z,5.25
2023-01-18T07:14:55.455Z,5.30
2023-01-18T07:17:22.627Z,5.00
2023-01-18T07:19:50.712Z,5.10
2023-01-18T07:22:17.855Z,5.75
2023-01-18T07:24:46.222Z,4.95
2023-01-18T07:27:13.440Z,5.13
2023-01-18T07:29:40.561Z,4.18
2023-01-18T07:32:07.870Z,4.95
2023-01-18T07:34:35.112Z,5.00
2023-01-18T07:37:02.240Z,5.53
2023-01-18T07:39:29.450Z,4.70
2023-01-18T07:41:56.652Z,4.90
2023-01-18T07:44:23.837Z,5.13
2023-01-18T07:46:50.983Z,4.72
2023-01-18T07:49:18.192Z,5.25
2023-01-18T07:51:45.390Z,4.47
2023-01-18T07:54:12.643Z,5.15
2023-01-18T07:56:40.260Z,5.85
2023-01-18T07:59:07.417Z,4.80
2023-01-18T08:01:34.710Z,5.00
2023-01-18T08:04:01.976Z,4.90
2023-01-18T08:06:29.109Z,5.05
2023-01-18T08:08:57.048Z,4.65
2023-01-18T08:11:24.866Z,5.13
2023-01-18T08:13:52.850Z,5.70
2023-01-18T08:16:20.140Z,4.43
2023-01-18T08:18:52.217Z,5.47
2023-01-18T08:21:19.520Z,5.82
2023-01-18T08:23:46.734Z,5.60
2023-01-18T08:26:15.151Z,4.80
2023-01-18T08:28:44.682Z,5.05
2023-01-18T08:31:16.928Z,5.60
2023-01-18T08:33:48.852Z,4.85
2023-01-18T08:36:17.776Z,5.07
2023-01-18T08:38:48.024Z,5.68
2023-01-18T08:41:15.134Z,5.35
2023-01-18T08:43:42.932Z,4.75
2023-01-18T08:46:10.181Z,4.90
2023-01-18T08:48:37.426Z,5.05
2023-01-18T08:51:05.152Z,5.07
2023-01-18T08:53:32.440Z,5.07
2023-01-18T08:55:59.657Z,5.35
2023-01-18T08:58:26.885Z,5.00
2023-01-18T09:00:55.094Z,4.50
2023-01-18T09:03:22.696Z,5.03
2023-01-18T09:05:50.011Z,5.47
2023-01-18T09:08:17.889Z,5.57
2023-01-18T09:10:45.542Z,6.88
2023-01-18T09:13:12.859Z,6.88
2023-01-18T09:15:40.049Z,6.78
2023-01-18T09:18:08.198Z,6.78
2023-01-18T09:20:36.465Z,7.13
2023-01-18T09:23:07.453Z,7.38
2023-01-18T09:25:36.362Z,7.50
2023-01-18T09:28:04.267Z,7.65
2023-01-18T09:30:31.509Z,6.97
2023-01-18T09:32:59.152Z,6.93
2023-01-18T09:35:26.627Z,7.30
2023-01-18T09:37:55.005Z,6.70
2023-01-18T09:40:23.036Z,6.35
2023-01-18T09:42:52.560Z,6.95
2023-01-18T09:45:33.658Z,7.05
2023-01-18T09:48:07.879Z,6.93
2023-01-18T09:50:39.292Z,7.05
2023-01-18T09:53:17.041Z,7.10
2023-01-18T09:55:59.341Z,6.97
2023-01-18T09:58:29.492Z,7.03
2023-01-18T10:01:02.982Z,6.90
2023-01-18T10:03:34.131Z,6.88
2023-01-18T10:06:09.467Z,7.53
2023-01-18T10:08:54.309Z,7.40
2023-01-18T10:11:31.289Z,6.90
2023-01-18T10:14:09.437Z,7.57
2023-01-18T10:16:37.921Z,7.30
2023-01-18T10:19:14.098Z,8.38
2023-01-18T10:22:00.273Z,7.25
2023-01-18T10:24:46.815Z,8.68
2023-01-18T10:27:21.754Z,7.40
2023-01-18T10:30:11.101Z,6.97
2023-01-18T10:32:39.097Z,6.32
2023-01-18T10:35:14.364Z,7.65
2023-01-18T10:37:45.333Z,8.70
2023-01-18T10:40:13.491Z,6.90
2023-01-18T10:42:45.206Z,7.45
2023-01-18T10:45:22.436Z,7.60
2023-01-18T10:47:50.312Z,9.85
2023-01-18T10:50:19.827Z,8.27
2023-01-18T10:52:47.091Z,8.55
2023-01-18T10:55:17.942Z,7.90
2023-01-18T10:57:47.812Z,7.68
2023-01-18T11:00:32.365Z,8.13
2023-01-18T11:03:00.585Z,8.52
2023-01-18T11:05:32.809Z,7.93
2023-01-18T11:08:22.715Z,7.70
2023-01-18T11:10:58.331Z,7.72
2023-01-18T11:13:27.323Z,8.48
2023-01-18T11:16:10.620Z,10.32
2023-01-18T11:18:37.907Z,11.07
2023-01-18T11:21:09.761Z,10.68
2023-01-18T11:23:37.273Z,12.35
2023-01-18T11:26:14.187Z,12.90
2023-01-18T11:29:10.673Z,12.25
2023-01-18T11:31:45.682Z,12.68
2023-01-18T11:34:23.597Z,14.30
2023-01-18T11:36:50.823Z,15.50
2023-01-18T11:39:28.456Z,15.95
2023-01-18T11:42:11.049Z,14.30
2023-01-18T11:44:43.119Z,15.75
2023-01-18T11:47:16.915Z,16.23
2023-01-18T11:49:46.397Z,13.02
2023-01-18T11:52:13.552Z,13.07
2023-01-18T11:54:46.854Z,14.70
2023-01-18T11:57:14.369Z,12.73
2023-01-18T11:59:43.530Z,16.10
2023-01-18T12:02:30.880Z,13.40
2023-01-18T12:05:13.472Z,13.00
2023-01-18T12:07:50.331Z,11.52
2023-01-18T12:10:28.275Z,11.82
2023-01-18T12:12:55.381Z,10.77
2023-01-18T12:15:28.743Z,11.00
2023-01-18T12:18:12.387Z,10.77
2023-01-18T12:20:46.286Z,11.02
2023-01-18T12:23:22.567Z,10.20
2023-01-18T12:26:06.833Z,11.30
2023-01-18T12:28:50.462Z,10.45
2023-01-18T12:31:17.616Z,9.30
2023-01-18T12:33:53.164Z,9.90
2023-01-18T12:36:29.927Z,10.25
2023-01-18T12:38:57.685Z,9.10
2023-01-18T12:41:39.900Z,13.75
2023-01-18T12:44:25.741Z,17.52
2023-01-18T12:47:01.491Z,28.17
2023-01-18T12:52:13.034Z,19.83
2023-01-18T12:54:47.602Z,22.25
2023-01-18T12:57:17.082Z,22.55
2023-01-18T12:59:55.749Z,23.45
2023-01-18T13:02:33.630Z,24.92
2023-01-18T13:05:04.191Z,26.20
2023-01-18T13:07:43.001Z,23.50
2023-01-18T13:10:24.419Z,22.23
2023-01-18T13:12:52.904Z,23.60
2023-01-18T13:15:29.086Z,22.50
2023-01-18T13:18:21.817Z,21.80
2023-01-18T13:21:07.536Z,21.77
2023-01-18T13:23:42.130Z,19.35
2023-01-18T13:26:12.585Z,20.42
2023-01-18T13:28:39.904Z,19.13
2023-01-18T13:31:07.202Z,19.60
2023-01-18T13:33:36.390Z,19.45
2023-01-18T13:36:08.707Z,18.05
2023-01-18T13:38:41.913Z,19.98
2023-01-18T13:41:13.378Z,19.95
2023-01-18T13:43:41.427Z,18.13
2023-01-18T13:46:08.610Z,17.92
2023-01-18T13:48:47.730Z,17.95
2023-01-18T13:51:33.569Z,16.60
2023-01-18T13:54:00.749Z,16.58
2023-01-18T13:56:31.522Z,16.65
2023-01-18T13:59:00.025Z,15.23
2023-01-18T14:01:28.553Z,15.63
2023-01-18T14:03:56.001Z,22.85
2023-01-18T14:06:25.929Z,26.10
2023-01-18T14:08:57.076Z,29.52
2023-01-18T14:11:30.642Z,28.10
2023-01-18T14:14:02.752Z,28.80
2023-01-18T14:16:39.125Z,27.35
2023-01-18T14:19:17.556Z,27.80
2023-01-18T14:21:44.673Z,25.60
2023-01-18T14:24:11.856Z,23.20
2023-01-18T14:26:40.815Z,23.98
2023-01-18T14:29:11.976Z,22.40
2023-01-18T14:31:44.292Z,22.73
2023-01-18T14:34:36.134Z,24.08
2023-01-18T14:37:03.827Z,22.95
2023-01-18T14:39:33.180Z,23.35
2023-01-18T14:42:02.603Z,22.92
2023-01-18T14:44:58.314Z,22.92
2023-01-18T14:47:28.966Z,23.00
2023-01-18T14:49:56.211Z,23.33
2023-01-18T14:52:25.436Z,22.83
2023-01-18T14:55:02.007Z,21.63
2023-01-18T14:57:29.238Z,22.77
2023-01-18T14:59:57.655Z,20.33
2023-01-18T15:02:27.732Z,21.05
2023-01-18T15:05:16.896Z,20.83
2023-01-18T15:07:45.875Z,19.48
2023-01-18T15:10:16.661Z,21.25
2023-01-18T15:12:46.426Z,20.35
2023-01-18T15:15:33.888Z,20.40
2023-01-18T15:18:11.710Z,19.73
2023-01-18T15:20:50.690Z,20.55
2023-01-18T15:23:18.009Z,20.08
2023-01-18T15:25:45.258Z,19.95
2023-01-18T15:28:23.282Z,19.05
2023-01-18T15:30:54.965Z,19.85
2023-01-18T15:33:24.435Z,19.23
2023-01-18T15:36:01.189Z,18.73
2023-01-18T15:38:28.871Z,18.38
2023-01-18T15:41:07.098Z,18.17
2023-01-18T15:43:41.977Z,16.95
2023-01-18T15:46:10.858Z,17.50
2023-01-18T15:48:58.307Z,17.50
2023-01-18T15:51:44.420Z,17.35
2023-01-18T15:54:18.617Z,16.42
2023-01-18T15:56:46.724Z,16.65
2023-01-18T15:59:18.694Z,17.58
2023-01-18T16:01:49.529Z,16.00
2023-01-18T16:04:23.710Z,17.58
2023-01-18T16:06:51.144Z,16.17
2023-01-18T16:09:21.001Z,16.02
2023-01-18T16:11:52.160Z,18.38
2023-01-18T16:14:21.703Z,19.38
2023-01-18T16:16:48.932Z,18.42
2023-01-18T16:19:16.251Z,16.90
2023-01-18T16:21:54.195Z,18.10
2023-01-18T16:24:51.040Z,16.15
2023-01-18T16:27:19.541Z,16.70
2023-01-18T16:29:57.926Z,15.75
2023-01-18T16:32:25.043Z,15.75
2023-01-18T16:34:55.479Z,15.88
2023-01-18T16:37:22.707Z,17.27
2023-01-18T16:39:50.257Z,16.25
2023-01-18T16:42:21.676Z,15.45
2023-01-18T16:44:51.175Z,15.85
2023-01-18T16:47:18.983Z,15.45
2023-01-18T16:49:46.552Z,15.25
2023-01-18T16:52:13.771Z,16.35
2023-01-18T16:54:42.420Z,16.25
2023-01-18T16:57:19.253Z,16.00
2023-01-18T16:59:46.445Z,14.82
2023-01-18T17:02:14.017Z,14.93
2023-01-18T17:04:41.583Z,15.27
2023-01-18T17:07:10.167Z,14.75
2023-01-18T17:09:47.973Z,14.27
2023-01-18T17:12:16.174Z,14.93
2023-01-18T17:14:43.290Z,14.77
2023-01-18T17:17:11.138Z,14.15
2023-01-18T17:19:40.366Z,13.88
2023-01-18T17:22:08.752Z,13.75
2023-01-18T17:24:36.033Z,14.77
2023-01-18T17:27:03.296Z,13.05
2023-01-18T17:29:30.462Z,13.23
2023-01-18T17:31:57.883Z,13.23
2023-01-18T17:34:28.355Z,12.93
2023-01-18T17:36:58.206Z,12.80
2023-01-18T17:39:36.859Z,13.35
2023-01-18T17:42:19.029Z,12.32
2023-01-18T17:44:49.941Z,12.60
2023-01-18T17:47:17.074Z,13.00
2023-01-18T17:49:44.287Z,12.10
2023-01-18T17:52:11.928Z,11.95
2023-01-18T17:54:39.062Z,11.50
2023-01-18T17:57:06.279Z,11.15
2023-01-18T17:59:33.436Z,12.07
2023-01-18T18:02:00.673Z,11.50
2023-01-18T18:04:27.839Z,11.43
2023-01-18T18:06:58.573Z,11.32
2023-01-18T18:09:26.373Z,10.43
2023-01-18T18:11:53.881Z,11.70
2023-01-18T18:14:21.326Z,10.77
2023-01-18T18:16:48.507Z,10.65
2023-01-18T18:19:15.761Z,11.15
2023-01-18T18:21:43.785Z,10.18
2023-01-18T18:24:10.980Z,12.25
2023-01-18T18:26:38.190Z,10.93
2023-01-18T18:29:05.690Z,10.93
2023-01-18T18:31:32.901Z,10.07
2023-01-18T18:34:00.118Z,10.57
2023-01-18T18:36:27.769Z,10.05
2023-01-18T18:38:55.109Z,9.82
2023-01-18T18:41:22.290Z,11.27
2023-01-18T18:43:49.474Z,9.93
2023-01-18T18:46:16.693Z,11.02
2023-01-18T18:48:43.847Z,11.27
2023-01-18T18:51:11.257Z,10.88
2023-01-18T18:53:39.647Z,10.95
2023-01-18T18:56:11.730Z,10.18
2023-01-18T18:58:39.530Z,11.02
2023-01-18T19:01:07.291Z,10.25
2023-01-18T19:03:36.031Z,11.68
2023-01-18T19:06:03.205Z,10.98
2023-01-18T19:08:31.026Z,10.13
2023-01-18T19:10:58.377Z,10.20
2023-01-18T19:13:25.674Z,9.32
2023-01-18T19:15:53.014Z,10.02
2023-01-18T19:18:20.394Z,10.00
2023-01-18T19:20:47.552Z,10.15
2023-01-18T19:23:14.698Z,9.40
2023-01-18T19:25:41.934Z,9.18
2023-01-18T19:28:09.203Z,9.05
2023-01-18T19:30:38.446Z,8.57
2023-01-18T19:33:05.944Z,8.93
2023-01-18T19:35:39.738Z,8.85
2023-01-18T19:38:07.886Z,9.25
2023-01-18T19:40:35.061Z,9.13
2023-01-18T19:43:02.678Z,9.18
2023-01-18T19:45:30.931Z,8.13
2023-01-18T19:47:59.633Z,8.93
2023-01-18T19:50:28.001Z,8.38
2023-01-18T19:52:55.392Z,8.75
2023-01-18T19:55:22.770Z,8.70
2023-01-18T19:57:52.161Z,8.52
2023-01-18T20:00:19.571Z,8.93
2023-01-18T20:02:46.881Z,8.98
2023-01-18T20:05:14.110Z,8.57
2023-01-18T20:07:41.480Z,8.35
2023-01-18T20:10:09.086Z,8.98
2023-01-18T20:12:36.869Z,9.18
2023-01-18T20:15:05.628Z,8.32
2023-01-18T20:17:32.857Z,9.55
2023-01-18T20:20:00.166Z,9.07
2023-01-18T20:22:27.397Z,8.57
2023-01-18T20:24:54.992Z,9.50
2023-01-18T20:27:22.207Z,8.80
2023-01-18T20:29:49.577Z,9.60
2023-01-18T20:32:17.988Z,9.50
2023-01-18T20:34:46.786Z,8.25
2023-01-18T20:37:14.370Z,9.23
2023-01-18T20:39:41.570Z,8.85
2023-01-18T20:42:08.975Z,8.90
2023-01-18T20:44:36.327Z,9.25
2023-01-18T20:47:03.820Z,9.32
2023-01-18T20:49:38.329Z,9.15
2023-01-18T20:52:07.086Z,8.75
2023-01-18T20:54:36.106Z,8.65
2023-01-18T20:57:03.697Z,8.55
2023-01-18T20:59:30.918Z,8.18
2023-01-18T21:01:58.231Z,7.95
2023-01-18T21:04:25.880Z,8.63
2023-01-18T21:06:53.027Z,8.70
2023-01-18T21:09:20.247Z,7.97
2023-01-18T21:11:47.370Z,8.38
2023-01-18T21:14:14.519Z,7.85
2023-01-18T21:16:41.728Z,9.00
2023-01-18T21:19:10.218Z,8.20
2023-01-18T21:21:37.420Z,7.93
2023-01-18T21:24:04.645Z,7.50
2023-01-18T21:26:32.021Z,8.38
2023-01-18T21:28:59.391Z,8.15
2023-01-18T21:31:27.192Z,8.13
2023-01-18T21:33:54.749Z,7.88
2023-01-18T21:36:22.930Z,7.82
2023-01-18T21:38:50.732Z,7.60
2023-01-18T21:41:36.666Z,7.50
2023-01-18T21:44:22.787Z,8.07
2023-01-18T21:46:51.672Z,8.50
2023-01-18T21:52:44.716Z,8.10
2023-01-18T21:55:12.893Z,7.95
2023-01-18T21:57:40.025Z,6.93
2023-01-18T22:00:08.815Z,7.70
2023-01-18T22:02:36.300Z,8.02
2023-01-18T22:05:04.086Z,7.57
2023-01-18T22:07:33.147Z,7.65
2023-01-18T22:10:06.625Z,8.10
2023-01-18T22:12:36.950Z,8.32
2023-01-18T22:15:07.427Z,6.72
2023-01-18T22:17:34.557Z,7.18
2023-01-18T22:20:01.944Z,6.20
2023-01-18T22:22:29.321Z,7.55
2023-01-18T22:24:57.079Z,7.65
2023-01-18T22:27:24.299Z,7.15
2023-01-18T22:29:51.732Z,7.30
2023-01-18T22:32:18.930Z,7.32
2023-01-18T22:34:46.105Z,6.22
2023-01-18T22:37:13.292Z,6.72
2023-01-18T22:39:40.451Z,6.30
2023-01-18T22:42:07.591Z,6.45
2023-01-18T22:44:34.794Z,7.28
2023-01-18T22:47:01.945Z,6.80
2023-01-18T22:49:29.073Z,7.10
2023-01-18T22:51:56.284Z,7.28
2023-01-18T22:54:23.718Z,6.30
2023-01-18T22:56:50.894Z,7.10
2023-01-18T22:59:18.065Z,6.75
2023-01-18T23:01:45.361Z,6.47
2023-01-18T23:04:12.588Z,6.82
2023-01-18T23:06:46.513Z,6.68
2023-01-18T23:09:14.814Z,7.35
2023-01-18T23:11:42.004Z,7.40
2023-01-18T23:14:28.042Z,6.63
2023-01-18T23:17:14.172Z,6.63
2023-01-18T23:19:41.306Z,6.28
2023-01-18T23:22:08.440Z,5.93
2023-01-18T23:24:36.644Z,6.32
2023-01-18T23:27:04.824Z,6.25
2023-01-18T23:29:32.039Z,6.32
2023-01-18T23:31:59.226Z,7.32
2023-01-18T23:34:26.478Z,6.15
2023-01-18T23:36:53.864Z,6.15
2023-01-18T23:39:39.858Z,8.02
2023-01-18T23:42:25.899Z,6.88
2023-01-18T23:45:12.010Z,6.25
2023-01-18T23:47:58.354Z,6.70
2023-01-18T23:50:44.427Z,6.75
2023-01-18T23:53:33.427Z,6.40
2023-01-18T23:56:00.809Z,6.13
2023-01-18T23:58:37.567Z,6.47
